sensor_id;sensor_type;location;lat;lon;timestamp;temperature;humidity
4431;DHT22;2228;48.140;11.488;2023-04-07T00:02:23;4.40;99.90
4431;DHT22;2228;48.140;11.488;2023-04-07T00:04:50;4.40;99.90
4431;DHT22;2228;48.140;11.488;2023-04-07T00:07:17;4.30;99.90
4431;DHT22;2228;48.140;11.488;2023-04-07T00:09:44;4.30;99.90
4431;DHT22;2228;48.140;11.488;2023-04-07T00:12:11;4.40;99.90
4431;DHT22;2228;48.140;11.488;2023-04-07T00:14:39;4.50;99.90
4431;DHT22;2228;48.140;11.488;2023-04-07T00:17:06;4.50;99.90
4431;DHT22;2228;48.140;11.488;2023-04-07T00:19:32;4.50;99.90
4431;DHT22;2228;48.140;11.488;2023-04-07T00:22:00;4.40;99.90
4431;DHT22;2228;48.140;11.488;2023-04-07T00:24:27;4.40;99.90
4431;DHT22;2228;48.140;11.488;2023-04-07T00:26:54;4.30;99.90
4431;DHT22;2228;48.140;11.488;2023-04-07T00:29:21;4.10;99.90
4431;DHT22;2228;48.140;11.488;2023-04-07T00:31:49;4.10;99.90
4431;DHT22;2228;48.140;11.488;2023-04-07T00:34:16;4.00;99.90
4431;DHT22;2228;48.140;11.488;2023-04-07T00:36:43;4.10;99.90
4431;DHT22;2228;48.140;11.488;2023-04-07T00:39:16;4.10;99.90
4431;DHT22;2228;48.140;11.488;2023-04-07T00:41:43;4.20;99.90
4431;DHT22;2228;48.140;11.488;2023-04-07T00:44:10;4.20;99.90
4431;DHT22;2228;48.140;11.488;2023-04-07T00:46:37;4.20;99.90
4431;DHT22;2228;48.140;11.488;2023-04-07T00:49:05;4.30;99.90
4431;DHT22;2228;48.140;11.488;2023-04-07T00:51:33;4.40;99.90
4431;DHT22;2228;48.140;11.488;2023-04-07T00:54:00;4.50;99.90
4431;DHT22;2228;48.140;11.488;2023-04-07T00:56:27;4.70;99.90
4431;DHT22;2228;48.140;11.488;2023-04-07T00:58:54;4.70;99.90
4431;DHT22;2228;48.140;11.488;2023-04-07T01:01:23;4.60;99.90
4431;DHT22;2228;48.140;11.488;2023-04-07T01:03:55;4.70;99.90
4431;DHT22;2228;48.140;11.488;2023-04-07T01:06:29;4.60;99.90
4431;DHT22;2228;48.140;11.488;2023-04-07T01:09:01;4.70;99.90
4431;DHT22;2228;48.140;11.488;2023-04-07T01:11:33;4.80;99.90
4431;DHT22;2228;48.140;11.488;2023-04-07T01:14:03;4.90;99.90
4431;DHT22;2228;48.140;11.488;2023-04-07T01:16:31;4.80;99.90
4431;DHT22;2228;48.140;11.488;2023-04-07T01:19:12;4.70;99.90
4431;DHT22;2228;48.140;11.488;2023-04-07T01:21:43;4.70;99.90
4431;DHT22;2228;48.140;11.488;2023-04-07T01:24:44;4.60;99.90
4431;DHT22;2228;48.140;11.488;2023-04-07T01:27:20;4.60;99.90
4431;DHT22;2228;48.140;11.488;2023-04-07T01:29:53;4.80;99.90
4431;DHT22;2228;48.140;11.488;2023-04-07T01:32:21;4.90;99.90
4431;DHT22;2228;48.140;11.488;2023-04-07T01:34:50;5.10;99.90
4431;DHT22;2228;48.140;11.488;2023-04-07T01:37:20;5.20;99.90
4431;DHT22;2228;48.140;11.488;2023-04-07T01:39:53;5.30;99.90
4431;DHT22;2228;48.140;11.488;2023-04-07T01:42:21;5.30;99.90
4431;DHT22;2228;48.140;11.488;2023-04-07T01:44:55;5.40;99.90
4431;DHT22;2228;48.140;11.488;2023-04-07T01:47:24;5.40;99.90
4431;DHT22;2228;48.140;11.488;2023-04-07T01:49:56;5.30;99.90
4431;DHT22;2228;48.140;11.488;2023-04-07T02:19:22;5.80;99.90
4431;DHT22;2228;48.140;11.488;2023-04-07T02:21:50;5.90;99.90
4431;DHT22;2228;48.140;11.488;2023-04-07T02:24:19;6.00;99.90
4431;DHT22;2228;48.140;11.488;2023-04-07T02:26:46;5.70;99.90
4431;DHT22;2228;48.140;11.488;2023-04-07T02:29:13;5.70;99.90
4431;DHT22;2228;48.140;11.488;2023-04-07T02:31:40;5.90;1.00
4431;DHT22;2228;48.140;11.488;2023-04-07T02:34:07;5.90;1.00
4431;DHT22;2228;48.140;11.488;2023-04-07T02:36:36;5.70;1.00
4431;DHT22;2228;48.140;11.488;2023-04-07T02:39:03;5.80;1.00
4431;DHT22;2228;48.140;11.488;2023-04-07T02:41:32;5.90;1.00
4431;DHT22;2228;48.140;11.488;2023-04-07T02:44:00;5.90;1.00
4431;DHT22;2228;48.140;11.488;2023-04-07T02:46:26;5.70;1.00
4431;DHT22;2228;48.140;11.488;2023-04-07T02:48:53;5.80;1.00
4431;DHT22;2228;48.140;11.488;2023-04-07T02:51:20;5.80;1.00
4431;DHT22;2228;48.140;11.488;2023-04-07T02:53:49;5.70;1.00
4431;DHT22;2228;48.140;11.488;2023-04-07T02:56:15;5.60;1.00
4431;DHT22;2228;48.140;11.488;2023-04-07T02:58:42;5.60;1.00
4431;DHT22;2228;48.140;11.488;2023-04-07T03:01:09;5.50;1.00
4431;DHT22;2228;48.140;11.488;2023-04-07T03:03:36;5.60;1.00
4431;DHT22;2228;48.140;11.488;2023-04-07T03:06:04;5.50;1.00
4431;DHT22;2228;48.140;11.488;2023-04-07T03:08:32;5.70;1.00
4431;DHT22;2228;48.140;11.488;2023-04-07T03:11:00;5.70;1.00
4431;DHT22;2228;48.140;11.488;2023-04-07T03:13:27;5.70;1.00
4431;DHT22;2228;48.140;11.488;2023-04-07T03:15:55;5.60;1.00
4431;DHT22;2228;48.140;11.488;2023-04-07T03:18:22;5.40;1.00
4431;DHT22;2228;48.140;11.488;2023-04-07T03:20:49;5.40;1.00
4431;DHT22;2228;48.140;11.488;2023-04-07T03:23:17;5.30;1.00
4431;DHT22;2228;48.140;11.488;2023-04-07T03:25:44;5.40;1.00
4431;DHT22;2228;48.140;11.488;2023-04-07T03:28:12;5.30;1.00
4431;DHT22;2228;48.140;11.488;2023-04-07T03:30:39;5.30;1.00
4431;DHT22;2228;48.140;11.488;2023-04-07T03:33:06;5.20;1.00
4431;DHT22;2228;48.140;11.488;2023-04-07T03:35:33;5.30;1.00
4431;DHT22;2228;48.140;11.488;2023-04-07T03:38:00;5.30;1.00
4431;DHT22;2228;48.140;11.488;2023-04-07T03:40:27;5.40;1.00
4431;DHT22;2228;48.140;11.488;2023-04-07T03:42:54;5.40;1.00
4431;DHT22;2228;48.140;11.488;2023-04-07T03:45:22;5.40;1.00
4431;DHT22;2228;48.140;11.488;2023-04-07T03:47:49;5.40;1.00
4431;DHT22;2228;48.140;11.488;2023-04-07T03:50:16;5.40;1.00
4431;DHT22;2228;48.140;11.488;2023-04-07T03:52:43;5.40;1.00
4431;DHT22;2228;48.140;11.488;2023-04-07T03:55:10;5.40;1.00
4431;DHT22;2228;48.140;11.488;2023-04-07T03:57:37;5.40;1.00
4431;DHT22;2228;48.140;11.488;2023-04-07T04:00:05;5.20;1.00
4431;DHT22;2228;48.140;11.488;2023-04-07T04:02:33;5.20;1.00
4431;DHT22;2228;48.140;11.488;2023-04-07T04:05:00;5.10;1.00
4431;DHT22;2228;48.140;11.488;2023-04-07T04:07:27;5.10;1.00
4431;DHT22;2228;48.140;11.488;2023-04-07T04:09:54;5.10;1.00
4431;DHT22;2228;48.140;11.488;2023-04-07T04:12:21;5.10;1.00
4431;DHT22;2228;48.140;11.488;2023-04-07T04:14:48;5.00;1.00
4431;DHT22;2228;48.140;11.488;2023-04-07T04:17:15;5.00;1.00
4431;DHT22;2228;48.140;11.488;2023-04-07T04:19:44;4.90;12.00
4431;DHT22;2228;48.140;11.488;2023-04-07T04:22:11;4.80;15.10
4431;DHT22;2228;48.140;11.488;2023-04-07T04:24:37;4.80;47.20
4431;DHT22;2228;48.140;11.488;2023-04-07T04:27:06;4.80;65.50
4431;DHT22;2228;48.140;11.488;2023-04-07T04:29:33;4.70;71.40
4431;DHT22;2228;48.140;11.488;2023-04-07T04:32:00;4.60;95.30
4431;DHT22;2228;48.140;11.488;2023-04-07T04:34:27;4.60;93.60
4431;DHT22;2228;48.140;11.488;2023-04-07T04:36:55;4.50;99.90
4431;DHT22;2228;48.140;11.488;2023-04-07T04:39:22;4.50;99.90
4431;DHT22;2228;48.140;11.488;2023-04-07T04:41:49;4.60;99.90
4431;DHT22;2228;48.140;11.488;2023-04-07T04:44:16;4.60;99.90
4431;DHT22;2228;48.140;11.488;2023-04-07T04:46:43;4.60;99.90
4431;DHT22;2228;48.140;11.488;2023-04-07T04:49:10;4.60;99.90
4431;DHT22;2228;48.140;11.488;2023-04-07T04:51:37;4.60;96.70
4431;DHT22;2228;48.140;11.488;2023-04-07T04:54:05;4.70;60.00
4431;DHT22;2228;48.140;11.488;2023-04-07T04:56:32;4.60;55.70
4431;DHT22;2228;48.140;11.488;2023-04-07T04:58:59;4.60;96.20
4431;DHT22;2228;48.140;11.488;2023-04-07T05:01:25;4.60;99.90
4431;DHT22;2228;48.140;11.488;2023-04-07T05:03:52;4.60;99.90
4431;DHT22;2228;48.140;11.488;2023-04-07T05:06:19;4.70;99.90
4431;DHT22;2228;48.140;11.488;2023-04-07T05:08:46;4.90;51.60
4431;DHT22;2228;48.140;11.488;2023-04-07T05:11:15;4.90;13.90
4431;DHT22;2228;48.140;11.488;2023-04-07T05:13:42;4.90;11.00
4431;DHT22;2228;48.140;11.488;2023-04-07T05:16:09;4.80;14.90
4431;DHT22;2228;48.140;11.488;2023-04-07T05:18:36;4.80;8.20
4431;DHT22;2228;48.140;11.488;2023-04-07T05:21:03;4.90;52.80
4431;DHT22;2228;48.140;11.488;2023-04-07T05:23:30;5.00;44.50
4431;DHT22;2228;48.140;11.488;2023-04-07T05:25:57;5.10;32.20
4431;DHT22;2228;48.140;11.488;2023-04-07T05:28:25;5.10;1.00
4431;DHT22;2228;48.140;11.488;2023-04-07T05:30:52;5.30;1.00
4431;DHT22;2228;48.140;11.488;2023-04-07T05:33:27;5.40;1.00
4431;DHT22;2228;48.140;11.488;2023-04-07T05:35:54;5.20;1.00
4431;DHT22;2228;48.140;11.488;2023-04-07T05:38:21;5.20;1.00
4431;DHT22;2228;48.140;11.488;2023-04-07T05:40:48;5.40;1.00
4431;DHT22;2228;48.140;11.488;2023-04-07T05:43:15;5.30;1.00
4431;DHT22;2228;48.140;11.488;2023-04-07T05:45:43;5.30;1.00
4431;DHT22;2228;48.140;11.488;2023-04-07T05:48:10;5.30;1.00
4431;DHT22;2228;48.140;11.488;2023-04-07T05:50:37;5.20;1.00
4431;DHT22;2228;48.140;11.488;2023-04-07T05:53:04;5.40;1.00
4431;DHT22;2228;48.140;11.488;2023-04-07T05:55:31;5.40;1.00
4431;DHT22;2228;48.140;11.488;2023-04-07T05:57:58;5.50;1.00
4431;DHT22;2228;48.140;11.488;2023-04-07T06:00:27;5.50;1.00
4431;DHT22;2228;48.140;11.488;2023-04-07T06:02:57;5.90;1.00
4431;DHT22;2228;48.140;11.488;2023-04-07T06:05:24;6.20;1.00
4431;DHT22;2228;48.140;11.488;2023-04-07T06:07:51;6.40;1.00
4431;DHT22;2228;48.140;11.488;2023-04-07T06:10:19;6.40;1.00
4431;DHT22;2228;48.140;11.488;2023-04-07T06:12:47;6.30;1.00
4431;DHT22;2228;48.140;11.488;2023-04-07T06:15:14;6.40;1.00
4431;DHT22;2228;48.140;11.488;2023-04-07T06:17:41;6.50;1.00
4431;DHT22;2228;48.140;11.488;2023-04-07T06:20:11;6.70;1.00
4431;DHT22;2228;48.140;11.488;2023-04-07T06:22:38;6.70;1.00
4431;DHT22;2228;48.140;11.488;2023-04-07T06:25:06;6.90;1.00
4431;DHT22;2228;48.140;11.488;2023-04-07T06:27:33;7.00;1.00
4431;DHT22;2228;48.140;11.488;2023-04-07T06:30:00;7.30;1.00
4431;DHT22;2228;48.140;11.488;2023-04-07T06:32:27;7.60;1.00
4431;DHT22;2228;48.140;11.488;2023-04-07T06:34:53;7.50;1.00
4431;DHT22;2228;48.140;11.488;2023-04-07T06:37:22;7.50;1.00
4431;DHT22;2228;48.140;11.488;2023-04-07T06:39:50;7.50;1.00
4431;DHT22;2228;48.140;11.488;2023-04-07T06:42:19;7.60;1.00
4431;DHT22;2228;48.140;11.488;2023-04-07T06:44:46;7.70;1.00
4431;DHT22;2228;48.140;11.488;2023-04-07T06:47:13;7.70;1.00
4431;DHT22;2228;48.140;11.488;2023-04-07T06:49:40;7.80;1.00
4431;DHT22;2228;48.140;11.488;2023-04-07T06:52:07;8.00;1.00
4431;DHT22;2228;48.140;11.488;2023-04-07T06:54:35;8.10;1.00
4431;DHT22;2228;48.140;11.488;2023-04-07T06:57:02;8.00;1.00
4431;DHT22;2228;48.140;11.488;2023-04-07T06:59:31;7.90;1.00
4431;DHT22;2228;48.140;11.488;2023-04-07T07:01:58;8.00;1.00
4431;DHT22;2228;48.140;11.488;2023-04-07T07:04:25;8.10;1.00
4431;DHT22;2228;48.140;11.488;2023-04-07T07:06:52;8.10;1.00
4431;DHT22;2228;48.140;11.488;2023-04-07T07:09:20;8.20;1.00
4431;DHT22;2228;48.140;11.488;2023-04-07T07:11:48;8.40;1.00
4431;DHT22;2228;48.140;11.488;2023-04-07T07:14:15;8.10;1.00
4431;DHT22;2228;48.140;11.488;2023-04-07T07:16:42;7.70;1.00
4431;DHT22;2228;48.140;11.488;2023-04-07T07:19:09;7.70;1.00
4431;DHT22;2228;48.140;11.488;2023-04-07T07:21:36;7.70;1.00
4431;DHT22;2228;48.140;11.488;2023-04-07T07:24:03;7.70;1.00
4431;DHT22;2228;48.140;11.488;2023-04-07T07:26:29;8.00;1.00
4431;DHT22;2228;48.140;11.488;2023-04-07T07:28:58;8.20;1.00
4431;DHT22;2228;48.140;11.488;2023-04-07T07:31:25;8.10;1.00
4431;DHT22;2228;48.140;11.488;2023-04-07T07:33:52;8.10;1.00
4431;DHT22;2228;48.140;11.488;2023-04-07T07:36:18;8.40;1.00
4431;DHT22;2228;48.140;11.488;2023-04-07T07:38:45;8.50;1.00
4431;DHT22;2228;48.140;11.488;2023-04-07T07:41:12;8.90;1.00
4431;DHT22;2228;48.140;11.488;2023-04-07T07:43:40;9.10;1.00
4431;DHT22;2228;48.140;11.488;2023-04-07T07:46:08;8.70;1.00
4431;DHT22;2228;48.140;11.488;2023-04-07T07:48:35;8.80;1.00
4431;DHT22;2228;48.140;11.488;2023-04-07T07:51:02;9.10;1.00
4431;DHT22;2228;48.140;11.488;2023-04-07T07:53:29;9.30;1.00
4431;DHT22;2228;48.140;11.488;2023-04-07T07:55:56;9.50;1.00
4431;DHT22;2228;48.140;11.488;2023-04-07T07:58:23;9.70;1.00
4431;DHT22;2228;48.140;11.488;2023-04-07T08:00:50;9.80;1.00
4431;DHT22;2228;48.140;11.488;2023-04-07T08:03:18;10.10;1.00
4431;DHT22;2228;48.140;11.488;2023-04-07T08:05:48;9.70;1.00
4431;DHT22;2228;48.140;11.488;2023-04-07T08:08:16;9.80;1.00
4431;DHT22;2228;48.140;11.488;2023-04-07T08:10:42;9.70;1.00
4431;DHT22;2228;48.140;11.488;2023-04-07T08:13:09;9.90;1.00
4431;DHT22;2228;48.140;11.488;2023-04-07T08:15:38;10.30;1.00
4431;DHT22;2228;48.140;11.488;2023-04-07T08:18:05;10.60;1.00
4431;DHT22;2228;48.140;11.488;2023-04-07T08:20:33;11.10;1.00
4431;DHT22;2228;48.140;11.488;2023-04-07T08:23:00;11.30;1.00
4431;DHT22;2228;48.140;11.488;2023-04-07T08:25:28;11.50;1.00
4431;DHT22;2228;48.140;11.488;2023-04-07T08:27:55;11.40;1.00
4431;DHT22;2228;48.140;11.488;2023-04-07T08:30:22;10.90;1.00
4431;DHT22;2228;48.140;11.488;2023-04-07T08:32:49;10.90;1.00
4431;DHT22;2228;48.140;11.488;2023-04-07T08:35:16;10.40;1.00
4431;DHT22;2228;48.140;11.488;2023-04-07T08:37:44;11.10;1.00
4431;DHT22;2228;48.140;11.488;2023-04-07T08:40:11;11.50;1.00
4431;DHT22;2228;48.140;11.488;2023-04-07T08:42:40;11.80;1.00
4431;DHT22;2228;48.140;11.488;2023-04-07T08:45:08;12.30;1.00
4431;DHT22;2228;48.140;11.488;2023-04-07T08:47:36;12.80;1.00
4431;DHT22;2228;48.140;11.488;2023-04-07T08:50:05;13.10;1.00
4431;DHT22;2228;48.140;11.488;2023-04-07T08:52:33;13.00;1.00
4431;DHT22;2228;48.140;11.488;2023-04-07T08:55:06;12.90;1.00
4431;DHT22;2228;48.140;11.488;2023-04-07T08:57:33;12.90;1.00
4431;DHT22;2228;48.140;11.488;2023-04-07T09:00:01;12.30;1.00
4431;DHT22;2228;48.140;11.488;2023-04-07T09:02:34;11.80;1.00
4431;DHT22;2228;48.140;11.488;2023-04-07T09:05:03;12.10;1.00
4431;DHT22;2228;48.140;11.488;2023-04-07T09:07:31;12.60;1.00
4431;DHT22;2228;48.140;11.488;2023-04-07T09:09:59;13.20;1.00
4431;DHT22;2228;48.140;11.488;2023-04-07T09:12:28;13.90;1.00
4431;DHT22;2228;48.140;11.488;2023-04-07T09:14:56;13.80;1.00
4431;DHT22;2228;48.140;11.488;2023-04-07T09:17:24;13.60;1.00
4431;DHT22;2228;48.140;11.488;2023-04-07T09:19:52;13.80;1.00
4431;DHT22;2228;48.140;11.488;2023-04-07T09:22:34;13.80;1.00
4431;DHT22;2228;48.140;11.488;2023-04-07T09:25:12;13.80;1.00
4431;DHT22;2228;48.140;11.488;2023-04-07T09:27:40;14.10;1.00
4431;DHT22;2228;48.140;11.488;2023-04-07T09:30:11;14.30;1.00
4431;DHT22;2228;48.140;11.488;2023-04-07T09:32:39;14.80;1.00
4431;DHT22;2228;48.140;11.488;2023-04-07T09:35:07;15.60;1.00
4431;DHT22;2228;48.140;11.488;2023-04-07T09:37:34;16.50;1.00
4431;DHT22;2228;48.140;11.488;2023-04-07T09:40:02;17.30;1.00
4431;DHT22;2228;48.140;11.488;2023-04-07T09:42:29;17.60;99.90
4431;DHT22;2228;48.140;11.488;2023-04-07T09:44:58;18.10;99.90
4431;DHT22;2228;48.140;11.488;2023-04-07T09:47:27;18.00;99.90
4431;DHT22;2228;48.140;11.488;2023-04-07T09:49:55;18.50;99.90
4431;DHT22;2228;48.140;11.488;2023-04-07T09:52:47;18.90;99.90
4431;DHT22;2228;48.140;11.488;2023-04-07T09:55:13;19.00;99.90
4431;DHT22;2228;48.140;11.488;2023-04-07T09:57:41;18.50;99.90
4431;DHT22;2228;48.140;11.488;2023-04-07T10:00:14;18.20;99.90
4431;DHT22;2228;48.140;11.488;2023-04-07T10:02:42;18.30;99.90
4431;DHT22;2228;48.140;11.488;2023-04-07T10:05:09;18.20;99.90
4431;DHT22;2228;48.140;11.488;2023-04-07T10:07:36;17.60;99.90
4431;DHT22;2228;48.140;11.488;2023-04-07T10:10:03;16.60;99.90
4431;DHT22;2228;48.140;11.488;2023-04-07T10:12:33;16.00;99.90
4431;DHT22;2228;48.140;11.488;2023-04-07T10:15:01;16.00;99.90
4431;DHT22;2228;48.140;11.488;2023-04-07T10:17:29;16.50;99.90
4431;DHT22;2228;48.140;11.488;2023-04-07T10:19:57;16.70;99.90
4431;DHT22;2228;48.140;11.488;2023-04-07T10:22:25;16.20;99.90
4431;DHT22;2228;48.140;11.488;2023-04-07T10:24:56;16.10;99.90
4431;DHT22;2228;48.140;11.488;2023-04-07T10:27:29;16.70;99.90
4431;DHT22;2228;48.140;11.488;2023-04-07T10:29:58;15.60;99.90
4431;DHT22;2228;48.140;11.488;2023-04-07T10:32:26;14.80;99.90
4431;DHT22;2228;48.140;11.488;2023-04-07T10:34:59;14.90;99.90
4431;DHT22;2228;48.140;11.488;2023-04-07T10:37:27;16.20;99.90
4431;DHT22;2228;48.140;11.488;2023-04-07T10:40:28;17.10;99.90
4431;DHT22;2228;48.140;11.488;2023-04-07T10:42:55;18.30;99.90
4431;DHT22;2228;48.140;11.488;2023-04-07T10:45:53;17.90;99.90
4431;DHT22;2228;48.140;11.488;2023-04-07T10:48:21;17.10;99.90
4431;DHT22;2228;48.140;11.488;2023-04-07T10:51:12;17.20;99.90
4431;DHT22;2228;48.140;11.488;2023-04-07T10:57:06;17.80;99.90
4431;DHT22;2228;48.140;11.488;2023-04-07T10:59:38;18.10;99.90
4431;DHT22;2228;48.140;11.488;2023-04-07T11:02:31;16.70;99.90
4431;DHT22;2228;48.140;11.488;2023-04-07T11:04:59;15.90;99.90
4431;DHT22;2228;48.140;11.488;2023-04-07T11:07:46;16.40;99.90
4431;DHT22;2228;48.140;11.488;2023-04-07T11:10:15;16.40;99.90
4431;DHT22;2228;48.140;11.488;2023-04-07T11:12:44;15.90;99.90
4431;DHT22;2228;48.140;11.488;2023-04-07T11:15:24;14.90;99.90
4431;DHT22;2228;48.140;11.488;2023-04-07T11:18:12;14.70;99.90
4431;DHT22;2228;48.140;11.488;2023-04-07T11:20:44;14.90;99.90
4431;DHT22;2228;48.140;11.488;2023-04-07T11:23:13;15.40;99.90
4431;DHT22;2228;48.140;11.488;2023-04-07T11:25:42;15.80;99.90
4431;DHT22;2228;48.140;11.488;2023-04-07T11:28:11;15.20;99.90
4431;DHT22;2228;48.140;11.488;2023-04-07T11:30:44;14.10;99.90
4431;DHT22;2228;48.140;11.488;2023-04-07T11:33:14;13.70;99.90
4431;DHT22;2228;48.140;11.488;2023-04-07T11:35:53;14.50;99.90
4431;DHT22;2228;48.140;11.488;2023-04-07T11:38:23;15.40;99.90
4431;DHT22;2228;48.140;11.488;2023-04-07T11:40:52;15.80;99.90
4431;DHT22;2228;48.140;11.488;2023-04-07T11:43:20;15.80;99.90
4431;DHT22;2228;48.140;11.488;2023-04-07T11:46:03;15.40;99.90
4431;DHT22;2228;48.140;11.488;2023-04-07T11:48:31;15.90;99.90
4431;DHT22;2228;48.140;11.488;2023-04-07T11:50:59;16.00;99.90
4431;DHT22;2228;48.140;11.488;2023-04-07T11:53:30;16.30;99.90
4431;DHT22;2228;48.140;11.488;2023-04-07T11:56:05;16.40;99.90
4431;DHT22;2228;48.140;11.488;2023-04-07T11:58:34;16.00;99.90
4431;DHT22;2228;48.140;11.488;2023-04-07T12:01:03;16.20;99.90
4431;DHT22;2228;48.140;11.488;2023-04-07T12:03:34;16.40;99.90
4431;DHT22;2228;48.140;11.488;2023-04-07T12:06:02;16.40;99.90
4431;DHT22;2228;48.140;11.488;2023-04-07T12:08:39;16.30;99.90
4431;DHT22;2228;48.140;11.488;2023-04-07T12:11:06;16.60;99.90
4431;DHT22;2228;48.140;11.488;2023-04-07T12:13:34;16.10;99.90
4431;DHT22;2228;48.140;11.488;2023-04-07T12:16:01;16.00;99.90
4431;DHT22;2228;48.140;11.488;2023-04-07T12:18:28;15.50;99.90
4431;DHT22;2228;48.140;11.488;2023-04-07T12:20:55;15.40;99.90
4431;DHT22;2228;48.140;11.488;2023-04-07T12:23:23;15.60;99.90
4431;DHT22;2228;48.140;11.488;2023-04-07T12:25:52;15.90;99.90
4431;DHT22;2228;48.140;11.488;2023-04-07T12:28:19;16.30;99.90
4431;DHT22;2228;48.140;11.488;2023-04-07T12:30:46;16.10;99.90
4431;DHT22;2228;48.140;11.488;2023-04-07T12:33:13;16.40;99.90
4431;DHT22;2228;48.140;11.488;2023-04-07T12:35:40;17.20;99.90
4431;DHT22;2228;48.140;11.488;2023-04-07T12:38:07;17.60;99.90
4431;DHT22;2228;48.140;11.488;2023-04-07T12:40:34;16.60;99.90
4431;DHT22;2228;48.140;11.488;2023-04-07T12:43:04;15.70;99.90
4431;DHT22;2228;48.140;11.488;2023-04-07T12:45:31;14.60;99.90
4431;DHT22;2228;48.140;11.488;2023-04-07T12:47:58;14.40;99.90
4431;DHT22;2228;48.140;11.488;2023-04-07T12:50:27;14.50;99.90
4431;DHT22;2228;48.140;11.488;2023-04-07T12:52:56;13.80;99.90
4431;DHT22;2228;48.140;11.488;2023-04-07T12:55:23;13.30;99.90
4431;DHT22;2228;48.140;11.488;2023-04-07T12:57:50;12.90;99.90
4431;DHT22;2228;48.140;11.488;2023-04-07T13:00:19;12.60;99.90
4431;DHT22;2228;48.140;11.488;2023-04-07T13:02:46;12.60;99.90
4431;DHT22;2228;48.140;11.488;2023-04-07T13:05:13;12.90;99.90
4431;DHT22;2228;48.140;11.488;2023-04-07T13:07:40;13.30;99.90
4431;DHT22;2228;48.140;11.488;2023-04-07T13:10:08;13.90;99.90
4431;DHT22;2228;48.140;11.488;2023-04-07T13:12:35;13.90;99.90
4431;DHT22;2228;48.140;11.488;2023-04-07T13:15:02;14.00;99.90
4431;DHT22;2228;48.140;11.488;2023-04-07T13:17:31;13.80;99.90
4431;DHT22;2228;48.140;11.488;2023-04-07T13:19:57;13.60;99.90
4431;DHT22;2228;48.140;11.488;2023-04-07T13:22:24;13.80;99.90
4431;DHT22;2228;48.140;11.488;2023-04-07T13:24:51;14.20;99.90
4431;DHT22;2228;48.140;11.488;2023-04-07T13:27:18;14.60;99.90
4431;DHT22;2228;48.140;11.488;2023-04-07T13:29:46;14.70;99.90
4431;DHT22;2228;48.140;11.488;2023-04-07T13:32:13;14.20;99.90
4431;DHT22;2228;48.140;11.488;2023-04-07T13:34:42;13.90;99.90
4431;DHT22;2228;48.140;11.488;2023-04-07T13:37:09;13.30;99.90
4431;DHT22;2228;48.140;11.488;2023-04-07T13:39:37;13.00;99.90
4431;DHT22;2228;48.140;11.488;2023-04-07T13:42:04;13.10;99.90
4431;DHT22;2228;48.140;11.488;2023-04-07T13:44:32;13.40;99.90
4431;DHT22;2228;48.140;11.488;2023-04-07T13:47:02;13.70;99.90
4431;DHT22;2228;48.140;11.488;2023-04-07T13:49:29;13.70;99.90
4431;DHT22;2228;48.140;11.488;2023-04-07T13:51:57;13.80;99.90
4431;DHT22;2228;48.140;11.488;2023-04-07T13:54:24;14.00;99.90
4431;DHT22;2228;48.140;11.488;2023-04-07T13:56:51;14.10;99.90
4431;DHT22;2228;48.140;11.488;2023-04-07T13:59:18;14.10;99.90
4431;DHT22;2228;48.140;11.488;2023-04-07T14:01:45;13.90;99.90
4431;DHT22;2228;48.140;11.488;2023-04-07T14:04:12;13.80;99.90
4431;DHT22;2228;48.140;11.488;2023-04-07T14:06:40;14.10;99.90
4431;DHT22;2228;48.140;11.488;2023-04-07T14:09:08;14.60;99.90
4431;DHT22;2228;48.140;11.488;2023-04-07T14:11:36;14.70;99.90
4431;DHT22;2228;48.140;11.488;2023-04-07T14:14:03;14.60;99.90
4431;DHT22;2228;48.140;11.488;2023-04-07T14:16:30;14.30;99.90
4431;DHT22;2228;48.140;11.488;2023-04-07T14:18:58;13.90;99.90
4431;DHT22;2228;48.140;11.488;2023-04-07T14:21:24;13.70;99.90
4431;DHT22;2228;48.140;11.488;2023-04-07T14:23:52;13.50;99.90
4431;DHT22;2228;48.140;11.488;2023-04-07T14:26:20;13.30;99.90
4431;DHT22;2228;48.140;11.488;2023-04-07T14:28:47;13.30;99.90
4431;DHT22;2228;48.140;11.488;2023-04-07T14:31:15;13.10;99.90
4431;DHT22;2228;48.140;11.488;2023-04-07T14:33:42;13.00;99.90
4431;DHT22;2228;48.140;11.488;2023-04-07T14:36:09;13.10;99.90
4431;DHT22;2228;48.140;11.488;2023-04-07T14:38:37;12.90;99.90
4431;DHT22;2228;48.140;11.488;2023-04-07T14:41:03;12.90;99.90
4431;DHT22;2228;48.140;11.488;2023-04-07T14:43:32;12.90;99.90
4431;DHT22;2228;48.140;11.488;2023-04-07T14:46:00;13.00;99.90
4431;DHT22;2228;48.140;11.488;2023-04-07T14:48:27;12.80;99.90
4431;DHT22;2228;48.140;11.488;2023-04-07T14:50:53;13.00;99.90
4431;DHT22;2228;48.140;11.488;2023-04-07T14:53:20;12.90;99.90
4431;DHT22;2228;48.140;11.488;2023-04-07T14:55:48;12.80;99.90
4431;DHT22;2228;48.140;11.488;2023-04-07T14:58:14;12.90;99.90
4431;DHT22;2228;48.140;11.488;2023-04-07T15:00:43;12.80;99.90
4431;DHT22;2228;48.140;11.488;2023-04-07T15:03:10;12.70;99.90
4431;DHT22;2228;48.140;11.488;2023-04-07T15:05:37;12.60;99.90
4431;DHT22;2228;48.140;11.488;2023-04-07T15:08:04;12.50;99.90
4431;DHT22;2228;48.140;11.488;2023-04-07T15:10:31;12.60;99.90
4431;DHT22;2228;48.140;11.488;2023-04-07T15:13:00;12.60;99.90
4431;DHT22;2228;48.140;11.488;2023-04-07T15:15:27;12.70;99.90
4431;DHT22;2228;48.140;11.488;2023-04-07T15:17:55;12.60;99.90
4431;DHT22;2228;48.140;11.488;2023-04-07T15:20:22;12.40;99.90
4431;DHT22;2228;48.140;11.488;2023-04-07T15:22:49;12.30;99.90
4431;DHT22;2228;48.140;11.488;2023-04-07T15:25:16;12.30;99.90
4431;DHT22;2228;48.140;11.488;2023-04-07T15:27:43;12.40;99.90
4431;DHT22;2228;48.140;11.488;2023-04-07T15:30:11;12.50;99.90
4431;DHT22;2228;48.140;11.488;2023-04-07T15:32:38;12.70;99.90
4431;DHT22;2228;48.140;11.488;2023-04-07T15:35:06;13.00;99.90
4431;DHT22;2228;48.140;11.488;2023-04-07T15:37:33;13.10;99.90
4431;DHT22;2228;48.140;11.488;2023-04-07T15:40:00;13.10;99.90
4431;DHT22;2228;48.140;11.488;2023-04-07T15:42:27;13.00;99.90
4431;DHT22;2228;48.140;11.488;2023-04-07T15:44:56;12.80;99.90
4431;DHT22;2228;48.140;11.488;2023-04-07T15:47:23;12.70;99.90
4431;DHT22;2228;48.140;11.488;2023-04-07T15:49:50;12.70;99.90
4431;DHT22;2228;48.140;11.488;2023-04-07T15:52:18;12.80;99.90
4431;DHT22;2228;48.140;11.488;2023-04-07T15:54:45;12.70;99.90
4431;DHT22;2228;48.140;11.488;2023-04-07T15:57:12;12.40;99.90
4431;DHT22;2228;48.140;11.488;2023-04-07T15:59:41;12.20;99.90
4431;DHT22;2228;48.140;11.488;2023-04-07T16:02:08;12.10;99.90
4431;DHT22;2228;48.140;11.488;2023-04-07T16:04:35;12.10;99.90
4431;DHT22;2228;48.140;11.488;2023-04-07T16:07:02;12.30;99.90
4431;DHT22;2228;48.140;11.488;2023-04-07T16:09:30;12.60;99.90
4431;DHT22;2228;48.140;11.488;2023-04-07T16:11:58;12.70;99.90
4431;DHT22;2228;48.140;11.488;2023-04-07T16:14:27;12.60;99.90
4431;DHT22;2228;48.140;11.488;2023-04-07T16:16:53;12.50;99.90
4431;DHT22;2228;48.140;11.488;2023-04-07T16:19:23;12.50;99.90
4431;DHT22;2228;48.140;11.488;2023-04-07T16:21:51;12.40;99.90
4431;DHT22;2228;48.140;11.488;2023-04-07T16:24:18;12.40;99.90
4431;DHT22;2228;48.140;11.488;2023-04-07T16:26:46;12.40;99.90
4431;DHT22;2228;48.140;11.488;2023-04-07T16:29:15;12.40;99.90
4431;DHT22;2228;48.140;11.488;2023-04-07T16:31:42;12.50;99.90
4431;DHT22;2228;48.140;11.488;2023-04-07T16:34:09;12.60;99.90
4431;DHT22;2228;48.140;11.488;2023-04-07T16:36:36;12.60;99.90
4431;DHT22;2228;48.140;11.488;2023-04-07T16:39:03;12.20;99.90